Time;durP1;ratioP1;P1;durP2;ratioP2;P2;SDS_P1;SDS_P2;PMS_P1;PMS_P2;Temp;Humidity;BMP_temperature;BMP_pressure;BME280_temperature;BME280_humidity;BME280_pressure;Samples;Min_cycle;Max_cycle;Signal;HPM_P1;HPM_P2
2024/01/06 00:03:13;;;;;;;6.70;4.60;;;22.70;51.10;;;;;;221652;1269;24197;-59
2024/01/06 00:08:18;;;;;;;7.90;5.50;;;22.60;51.20;;;;;;221939;1265;22694;-59
2024/01/06 00:13:43;;;;;;;5.70;5.00;;;22.60;51.20;;;;;;221919;1269;22546;-60
2024/01/06 00:18:48;;;;;;;6.00;4.80;;;22.60;51.90;;;;;;221781;1268;24235;-58
2024/01/06 00:23:52;;;;;;;7.50;5.00;;;22.50;51.60;;;;;;221781;1266;22546;-60
2024/01/06 00:28:56;;;;;;;9.20;5.40;;;22.50;51.30;;;;;;222097;1263;24206;-57
2024/01/06 00:34:01;;;;;;;5.90;4.90;;;22.40;51.50;;;;;;221677;1263;25216;-60
2024/01/06 00:39:05;;;;;;;6.10;5.40;;;22.50;51.50;;;;;;221934;1268;24228;-61
2024/01/06 00:44:09;;;;;;;6.40;4.90;;;22.60;51.40;;;;;;222356;1269;22530;-59
2024/01/06 00:49:13;;;;;;;7.10;5.60;;;22.70;51.20;;;;;;228588;1262;22559;-59
2024/01/06 00:54:18;;;;;;;5.90;4.80;;;22.90;50.40;;;;;;229756;1269;22151;-60
2024/01/06 00:59:22;;;;;;;5.60;5.10;;;23.00;50.10;;;;;;222808;1267;22533;-59
2024/01/06 01:04:26;;;;;;;5.80;5.30;;;23.00;50.00;;;;;;222276;1268;24268;-59
2024/01/06 01:09:30;;;;;;;5.70;5.00;;;23.00;50.10;;;;;;222113;1266;22517;-59
2024/01/06 01:14:34;;;;;;;5.80;5.20;;;23.00;50.30;;;;;;222424;1264;23592;-58
2024/01/06 01:19:38;;;;;;;6.10;5.50;;;23.00;50.10;;;;;;220937;1275;24323;-58
2024/01/06 01:24:42;;;;;;;6.00;5.40;;;23.00;50.20;;;;;;221047;1273;22535;-58
2024/01/06 01:29:54;;;;;;;6.00;5.40;;;23.00;50.00;;;;;;220700;1267;25527;-58
2024/01/06 01:34:59;;;;;;;6.10;5.50;;;23.10;50.00;;;;;;221323;1264;22524;-59
2024/01/06 01:40:04;;;;;;;6.60;5.90;;;23.00;50.70;;;;;;221919;1268;25580;-59
2024/01/06 01:45:09;;;;;;;6.80;5.90;;;23.00;50.00;;;;;;222303;1269;24353;-58
2024/01/06 01:50:16;;;;;;;6.70;5.80;;;22.90;50.00;;;;;;221882;1266;22568;-59
2024/01/06 01:55:20;;;;;;;7.60;6.20;;;22.90;50.30;;;;;;222603;1268;22519;-59
2024/01/06 02:00:25;;;;;;;5.90;5.30;;;22.70;50.80;;;;;;222064;1267;24229;-60
2024/01/06 02:05:30;;;;;;;8.40;5.80;;;22.80;50.30;;;;;;221888;1268;24229;-58
2024/01/06 02:10:35;;;;;;;5.80;5.20;;;22.90;50.30;;;;;;222190;1268;22759;-59
2024/01/06 02:15:40;;;;;;;6.60;5.40;;;23.00;50.20;;;;;;222308;1267;22734;-59
2024/01/06 02:20:46;;;;;;;6.00;5.10;;;23.10;50.10;;;;;;222030;1264;22599;-59
2024/01/06 02:25:51;;;;;;;5.80;5.30;;;23.10;50.50;;;;;;222768;1257;23060;-60
2024/01/06 02:30:55;;;;;;;6.40;5.50;;;23.30;50.00;;;;;;223360;1262;25158;-59
2024/01/06 02:35:59;;;;;;;7.70;6.00;;;23.30;50.00;;;;;;221955;1266;22647;-60
2024/01/06 02:41:04;;;;;;;6.20;5.50;;;23.30;50.00;;;;;;222132;1266;23076;-58
2024/01/06 02:46:08;;;;;;;5.90;5.30;;;23.40;49.80;;;;;;229954;1269;22144;-59
2024/01/06 02:51:15;;;;;;;6.90;5.50;;;23.60;49.30;;;;;;229791;1266;22119;-59
2024/01/06 02:56:19;;;;;;;6.70;6.00;;;23.60;48.80;;;;;;226942;1269;22533;-57
2024/01/06 03:01:23;;;;;;;7.50;5.60;;;23.70;49.40;;;;;;221889;1269;25202;-57
2024/01/06 03:06:28;;;;;;;6.60;5.90;;;23.40;49.50;;;;;;221852;1267;25386;-58
2024/01/06 03:11:32;;;;;;;5.90;5.30;;;23.30;49.70;;;;;;222266;1266;26643;-58
2024/01/06 03:16:36;;;;;;;6.60;5.90;;;23.20;49.90;;;;;;222213;1254;26599;-59
2024/01/06 03:21:41;;;;;;;7.90;6.30;;;23.10;50.20;;;;;;222202;1256;24295;-58
2024/01/06 03:26:45;;;;;;;7.00;6.30;;;22.90;50.50;;;;;;221984;1267;22568;-58
2024/01/06 03:31:49;;;;;;;7.20;6.00;;;22.80;50.50;;;;;;222509;1268;24195;-58
2024/01/06 03:36:53;;;;;;;7.10;5.70;;;22.80;50.60;;;;;;221783;1254;25495;-59
2024/01/06 03:41:57;;;;;;;6.90;5.80;;;23.00;50.30;;;;;;221647;1268;25232;-58
2024/01/06 03:47:02;;;;;;;7.00;5.40;;;23.00;50.30;;;;;;221703;1267;25279;-59
2024/01/06 03:52:06;;;;;;;6.50;5.80;;;23.00;50.20;;;;;;222824;1267;24279;-58
2024/01/06 03:57:11;;;;;;;6.60;6.00;;;23.00;50.20;;;;;;222378;1260;22650;-59
2024/01/06 04:02:15;;;;;;;6.00;5.40;;;23.10;50.10;;;;;;222096;1267;24251;-58
2024/01/06 04:07:19;;;;;;;6.80;6.10;;;23.20;50.00;;;;;;223367;1270;22528;-58
2024/01/06 04:12:23;;;;;;;7.60;5.50;;;23.10;50.10;;;;;;222240;1266;22543;-58
2024/01/06 04:17:29;;;;;;;6.40;5.80;;;23.20;49.80;;;;;;222628;1267;25446;-58
2024/01/06 04:22:33;;;;;;;7.00;5.90;;;23.20;49.60;;;;;;221831;1265;24222;-58
2024/01/06 04:27:37;;;;;;;7.70;6.00;;;23.10;49.80;;;;;;222111;1264;22602;-60
2024/01/06 04:32:42;;;;;;;6.60;5.90;;;23.10;50.40;;;;;;222016;1264;25386;-58
2024/01/06 04:37:47;;;;;;;7.40;6.10;;;23.10;50.00;;;;;;222076;1264;23010;-60
2024/01/06 04:42:51;;;;;;;6.90;6.20;;;23.10;49.90;;;;;;221848;1269;22547;-59
2024/01/06 04:47:56;;;;;;;7.10;6.30;;;23.10;50.50;;;;;;221936;1260;24320;-58
2024/01/06 04:53:00;;;;;;;7.20;6.10;;;23.00;50.10;;;;;;222308;1264;22534;-61
2024/01/06 04:58:05;;;;;;;8.10;6.00;;;22.80;50.60;;;;;;221674;1268;22576;-59
2024/01/06 05:03:10;;;;;;;8.30;6.50;;;22.90;50.20;;;;;;222154;1251;24364;-58
2024/01/06 05:08:14;;;;;;;7.00;6.20;;;22.90;50.20;;;;;;222038;1262;22509;-59
2024/01/06 05:13:18;;;;;;;6.70;6.10;;;23.00;50.40;;;;;;222077;1264;25231;-57
2024/01/06 05:18:22;;;;;;;7.50;6.40;;;23.00;50.40;;;;;;221996;1267;24378;-56
2024/01/06 05:23:27;;;;;;;6.60;5.90;;;23.00;50.10;;;;;;222234;1268;24239;-59
2024/01/06 05:28:31;;;;;;;6.70;6.10;;;23.10;50.00;;;;;;221752;1260;22525;-59
2024/01/06 05:33:36;;;;;;;6.60;5.80;;;23.10;49.80;;;;;;222212;1267;22536;-59
2024/01/06 05:38:40;;;;;;;7.20;6.20;;;23.10;49.70;;;;;;221930;1261;25461;-59
2024/01/06 05:43:45;;;;;;;7.10;6.50;;;23.00;50.10;;;;;;221911;1268;515321;-59
2024/01/06 05:48:50;;;;;;;8.00;5.90;;;23.00;50.00;;;;;;221950;1268;23229;-57
2024/01/06 05:53:55;;;;;;;7.30;6.50;;;23.00;50.20;;;;;;222251;1257;25325;-60
2024/01/06 05:58:59;;;;;;;6.70;5.90;;;22.90;50.00;;;;;;221831;1264;22646;-58
2024/01/06 06:04:03;;;;;;;8.20;6.30;;;22.90;50.00;;;;;;221926;1254;24244;-58
2024/01/06 06:09:09;;;;;;;6.40;5.70;;;22.90;50.60;;;;;;222016;1253;25983;-60
2024/01/06 06:14:14;;;;;;;6.90;6.20;;;22.80;51.30;;;;;;221934;1264;22561;-59
2024/01/06 06:19:19;;;;;;;6.70;5.90;;;22.80;51.60;;;;;;222069;1267;22528;-57
2024/01/06 06:24:23;;;;;;;7.50;6.10;;;22.80;51.10;;;;;;221700;1269;22535;-59
2024/01/06 06:29:28;;;;;;;7.90;6.80;;;22.70;52.10;;;;;;221903;1268;22544;-60
2024/01/06 06:34:32;;;;;;;8.00;6.60;;;22.60;50.50;;;;;;221663;1269;22595;-59
2024/01/06 06:39:37;;;;;;;7.00;5.80;;;22.60;51.50;;;;;;221946;1263;25970;-58
2024/01/06 06:44:41;;;;;;;7.50;6.80;;;22.60;51.10;;;;;;224075;1259;25244;-58
2024/01/06 06:49:46;;;;;;;6.60;6.00;;;22.90;51.10;;;;;;229146;1266;22992;-59
2024/01/06 06:54:52;;;;;;;7.50;6.30;;;23.00;49.70;;;;;;229644;1267;22159;-60
2024/01/06 06:59:56;;;;;;;6.70;6.10;;;23.20;49.70;;;;;;221820;1264;24339;-58
2024/01/06 07:05:00;;;;;;;7.20;6.50;;;23.30;49.50;;;;;;222002;1262;24279;-58
2024/01/06 07:10:06;;;;;;;6.80;6.20;;;23.20;49.60;;;;;;221794;1268;24232;-58
2024/01/06 07:15:11;;;;;;;6.80;6.20;;;23.10;49.80;;;;;;222245;1266;22638;-58
2024/01/06 07:20:15;;;;;;;7.50;6.80;;;23.00;50.30;;;;;;222398;1268;22524;-59
2024/01/06 07:25:20;;;;;;;6.70;6.00;;;22.90;50.20;;;;;;222020;1265;22648;-59
2024/01/06 07:30:28;;;;;;;7.10;6.40;;;22.80;50.40;;;;;;221915;1268;24199;-59
2024/01/06 07:35:32;;;;;;;6.90;6.20;;;22.70;50.50;;;;;;222347;1268;22742;-60
2024/01/06 07:40:37;;;;;;;6.60;6.00;;;22.80;50.50;;;;;;222072;1267;25233;-59
2024/01/06 07:45:41;;;;;;;6.60;6.00;;;22.80;50.60;;;;;;221791;1268;24198;-58
2024/01/06 07:50:46;;;;;;;6.70;6.00;;;22.80;51.00;;;;;;221979;1269;23845;-58
2024/01/06 07:55:50;;;;;;;6.10;5.50;;;22.80;50.70;;;;;;221864;1254;25455;-59
2024/01/06 08:00:54;;;;;;;6.60;5.90;;;22.70;50.80;;;;;;221881;1253;24196;-59
2024/01/06 08:05:59;;;;;;;6.50;5.90;;;22.70;50.80;;;;;;222045;1267;22541;-58
2024/01/06 08:11:03;;;;;;;7.40;6.70;;;22.60;50.80;;;;;;221992;1267;22781;-58
2024/01/06 08:16:07;;;;;;;7.20;6.40;;;22.50;50.70;;;;;;222451;1262;24229;-61
2024/01/06 08:21:12;;;;;;;7.30;5.80;;;22.60;50.80;;;;;;221955;1262;24213;-59
2024/01/06 08:26:16;;;;;;;7.20;6.00;;;22.70;50.60;;;;;;222375;1267;24162;-59
2024/01/06 08:31:21;;;;;;;6.60;6.00;;;22.80;50.30;;;;;;221903;1264;24189;-61
2024/01/06 08:36:25;;;;;;;6.70;6.00;;;22.80;50.30;;;;;;222110;1263;24199;-60
2024/01/06 08:41:30;;;;;;;6.50;5.90;;;23.00;50.30;;;;;;221819;1268;25470;-59
2024/01/06 08:46:34;;;;;;;7.00;5.90;;;23.00;50.00;;;;;;222065;1268;24353;-59
2024/01/06 08:51:38;;;;;;;6.50;5.90;;;23.10;49.80;;;;;;221841;1268;22523;-58
2024/01/06 08:56:43;;;;;;;6.20;5.60;;;23.00;49.80;;;;;;222265;1265;22571;-60
2024/01/06 09:01:47;;;;;;;6.20;5.60;;;23.00;50.50;;;;;;222555;1266;22816;-57
2024/01/06 09:06:53;;;;;;;7.30;6.00;;;22.80;50.60;;;;;;221952;1254;22631;-57
2024/01/06 09:11:57;;;;;;;11.00;6.20;;;22.80;50.70;;;;;;221967;1262;22524;-56
2024/01/06 09:17:01;;;;;;;6.30;5.70;;;22.70;51.20;;;;;;222639;1267;27810;-56
2024/01/06 09:22:06;;;;;;;8.80;6.40;;;22.70;51.60;;;;;;222143;1268;22637;-57
2024/01/06 09:27:10;;;;;;;10.80;6.40;;;22.70;52.40;;;;;;221843;1262;22559;-58
2024/01/06 09:32:15;;;;;;;8.50;7.10;;;22.60;53.50;;;;;;222241;1262;24370;-58
2024/01/06 09:37:19;;;;;;;10.40;7.40;;;22.60;53.30;;;;;;222109;1255;25332;-59
2024/01/06 09:42:23;;;;;;;11.30;7.50;;;22.60;53.20;;;;;;221880;1254;22636;-57
2024/01/06 09:47:29;;;;;;;8.60;7.60;;;22.60;53.20;;;;;;221831;1263;24229;-57
2024/01/06 09:52:37;;;;;;;9.70;7.70;;;22.60;53.50;;;;;;221253;1264;22527;-58
2024/01/06 09:57:44;;;;;;;9.10;7.50;;;22.70;52.20;;;;;;220601;1268;22683;-57
2024/01/06 10:02:51;;;;;;;12.20;7.20;;;22.80;52.80;;;;;;220849;1268;22550;-58
2024/01/06 10:07:56;;;;;;;9.60;7.70;;;22.90;51.60;;;;;;221257;1268;25132;-63
2024/01/06 10:13:01;;;;;;;8.80;7.40;;;22.90;51.40;;;;;;222376;1267;24811;-56
2024/01/06 10:18:08;;;;;;;8.70;7.70;;;22.80;51.70;;;;;;221975;1267;25491;-58
2024/01/06 10:23:13;;;;;;;9.40;7.60;;;22.80;51.40;;;;;;222144;1251;22691;-53
2024/01/06 10:28:18;;;;;;;8.70;7.80;;;22.80;51.60;;;;;;221987;1269;24206;-54
2024/01/06 10:33:23;;;;;;;7.70;7.00;;;22.70;51.10;;;;;;221923;1268;22587;-52
2024/01/06 10:38:34;;;;;;;;;;;22.70;51.40;;;;;;222004;1262;22642;-49
2024/01/06 10:43:43;;;;;;;8.20;7.30;;;22.60;50.90;;;;;;222203;1257;25406;-50
2024/01/06 10:48:49;;;;;;;9.20;7.50;;;22.50;51.60;;;;;;221801;1262;22834;-53
2024/01/06 10:53:53;;;;;;;9.00;7.50;;;22.50;51.10;;;;;;222235;1268;24348;-52
2024/01/06 10:58:57;;;;;;;9.10;6.70;;;22.50;51.00;;;;;;221898;1259;22517;-49
2024/01/06 11:04:06;;;;;;;8.60;6.60;;;22.50;51.00;;;;;;222547;1262;24227;-49
2024/01/06 11:09:23;;;;;;;7.60;6.90;;;22.40;50.70;;;;;;224104;1265;23569;-53
2024/01/06 11:14:28;;;;;;;9.20;8.20;;;22.60;50.70;;;;;;222204;1262;24221;-53
2024/01/06 11:19:35;;;;;;;12.30;9.50;;;22.60;50.60;;;;;;221940;1246;23927;-56
2024/01/06 11:24:47;;;;;;;11.40;8.70;;;22.70;50.60;;;;;;221946;1262;24382;-50
2024/01/06 11:29:54;;;;;;;10.50;9.20;;;22.70;50.60;;;;;;221899;1265;22677;-54
2024/01/06 11:35:06;;;;;;;10.50;8.60;;;22.80;50.90;;;;;;221796;1262;22517;-55
2024/01/06 11:40:13;;;;;;;10.10;8.90;;;22.80;50.80;;;;;;222099;1262;24179;-54
2024/01/06 11:45:17;;;;;;;9.60;8.70;;;22.80;50.80;;;;;;221831;1247;24266;-53
2024/01/06 11:50:23;;;;;;;9.40;8.10;;;22.80;51.00;;;;;;221746;1265;24197;-54
2024/01/06 11:55:28;;;;;;;15.40;10.00;;;22.70;50.70;;;;;;221689;1256;22763;-52
2024/01/06 12:00:41;;;;;;;9.20;8.30;;;22.70;50.80;;;;;;221831;1266;23161;-54
2024/01/06 12:06:02;;;;;;;9.20;8.30;;;22.60;51.00;;;;;;222264;1268;24153;-53
2024/01/06 12:11:21;;;;;;;12.40;9.20;;;22.60;50.90;;;;;;221849;1251;22604;-54
2024/01/06 12:16:36;;;;;;;10.10;8.30;;;22.60;51.10;;;;;;221947;1268;24257;-53
2024/01/06 12:21:48;;;;;;;11.80;8.90;;;22.50;50.80;;;;;;222328;1263;22650;-55
2024/01/06 12:26:59;;;;;;;10.50;8.40;;;22.50;51.10;;;;;;221986;1264;22531;-52
2024/01/06 12:32:13;;;;;;;10.00;8.70;;;22.50;50.90;;;;;;221829;1262;22551;-55
2024/01/06 12:37:20;;;;;;;12.00;9.10;;;22.60;50.50;;;;;;222350;1267;25333;-56
2024/01/06 12:42:33;;;;;;;12.50;9.40;;;22.60;50.30;;;;;;221972;1259;24989;-55
2024/01/06 12:47:47;;;;;;;12.60;8.80;;;22.70;49.90;;;;;;221687;1262;22733;-55
2024/01/06 12:53:02;;;;;;;11.20;9.20;;;22.80;49.80;;;;;;221952;1262;22571;-54
2024/01/06 12:58:09;;;;;;;11.80;9.80;;;22.80;49.90;;;;;;221804;1262;25279;-56
2024/01/06 13:03:14;;;;;;;13.40;10.50;;;22.90;49.40;;;;;;221714;1264;25285;-55
2024/01/06 13:08:19;;;;;;;16.30;10.50;;;22.90;49.20;;;;;;221703;1263;24252;-53
2024/01/06 13:13:23;;;;;;;15.40;10.60;;;23.00;49.30;;;;;;222115;1268;24269;-52
2024/01/06 13:18:28;;;;;;;14.70;10.60;;;22.90;49.40;;;;;;221729;1262;22518;-53
2024/01/06 13:23:37;;;;;;;13.00;11.40;;;22.80;49.10;;;;;;222211;1262;22541;-55
2024/01/06 13:28:41;;;;;;;16.60;11.20;;;22.80;50.00;;;;;;221985;1262;22725;-57
2024/01/06 13:33:45;;;;;;;14.00;11.40;;;22.70;49.90;;;;;;221835;1266;22687;-57
2024/01/06 13:38:50;;;;;;;12.90;10.80;;;22.60;50.20;;;;;;222143;1262;22534;-54
2024/01/06 13:43:54;;;;;;;14.30;11.70;;;22.60;50.60;;;;;;222194;1254;22982;-56
2024/01/06 13:48:58;;;;;;;15.00;12.20;;;22.50;50.40;;;;;;222082;1259;22517;-53
2024/01/06 13:54:03;;;;;;;16.20;12.30;;;22.50;50.30;;;;;;222501;1263;23813;-57
2024/01/06 13:59:08;;;;;;;16.50;11.90;;;22.50;50.50;;;;;;222371;1263;24245;-59
2024/01/06 14:04:12;;;;;;;18.50;11.90;;;22.60;50.30;;;;;;222655;1262;22580;-56
2024/01/06 14:09:18;;;;;;;17.70;11.50;;;22.70;49.90;;;;;;221889;1256;23135;-56
2024/01/06 14:14:22;;;;;;;19.00;11.70;;;22.80;49.20;;;;;;221896;1266;22663;-57
2024/01/06 14:19:26;;;;;;;15.50;11.70;;;23.00;49.90;;;;;;222238;1262;24197;-55
2024/01/06 14:24:30;;;;;;;15.60;11.60;;;23.10;51.90;;;;;;225746;1265;25288;-56
2024/01/06 14:29:36;;;;;;;15.40;13.50;;;23.20;54.90;;;;;;221847;1246;24132;-57
2024/01/06 14:34:40;;;;;;;14.50;13.00;;;23.10;53.10;;;;;;221893;1262;24174;-57
2024/01/06 14:39:46;;;;;;;14.90;12.40;;;23.20;53.20;;;;;;222050;1265;24388;-57
2024/01/06 14:44:52;;;;;;;14.40;12.90;;;23.10;53.90;;;;;;221504;1262;26526;-58
2024/01/06 14:49:55;;;;;;;17.00;12.70;;;23.10;54.90;;;;;;221447;1257;23896;-56
2024/01/06 14:55:00;;;;;;;14.00;12.40;;;23.00;55.70;;;;;;223722;1265;24382;-49
2024/01/06 15:00:06;;;;;;;18.20;13.30;;;23.00;55.30;;;;;;225125;1268;24261;-52
2024/01/06 15:05:10;;;;;;;14.20;12.60;;;23.00;54.60;;;;;;222098;1265;22606;-52
2024/01/06 15:10:15;;;;;;;15.90;12.20;;;23.00;55.30;;;;;;221694;1262;23131;-52
2024/01/06 15:15:21;;;;;;;19.80;11.90;;;22.90;53.70;;;;;;221920;1256;23818;-53
2024/01/06 15:20:31;;;;;;;16.80;12.30;;;22.80;53.60;;;;;;221782;1251;25339;-55
2024/01/06 15:25:35;;;;;;;13.60;12.00;;;22.70;53.80;;;;;;222024;1266;24210;-53
2024/01/06 15:30:39;;;;;;;14.00;12.30;;;22.70;54.10;;;;;;221660;1262;25259;-53
2024/01/06 15:35:44;;;;;;;13.80;12.30;;;22.60;53.80;;;;;;221795;1259;23718;-54
2024/01/06 15:40:48;;;;;;;17.30;11.60;;;22.70;53.80;;;;;;221665;1268;23919;-52
2024/01/06 15:45:55;;;;;;;13.80;11.90;;;22.80;54.20;;;;;;221837;1268;22540;-55
2024/01/06 15:51:00;;;;;;;12.90;11.60;;;22.80;53.80;;;;;;221623;1268;24087;-56
2024/01/06 15:56:04;;;;;;;13.70;12.10;;;22.80;53.80;;;;;;221959;1262;24343;-56
2024/01/06 16:01:09;;;;;;;14.20;11.10;;;22.80;53.50;;;;;;222326;1265;22514;-55
2024/01/06 16:06:14;;;;;;;18.00;11.30;;;22.80;53.00;;;;;;221952;1267;22516;-57
2024/01/06 16:11:20;;;;;;;17.70;10.40;;;22.90;53.60;;;;;;222050;1267;22628;-55
2024/01/06 16:16:28;;;;;;;14.00;11.00;;;22.70;53.20;;;;;;221570;1247;24205;-53
2024/01/06 16:21:32;;;;;;;13.90;10.50;;;22.50;53.20;;;;;;221701;1268;25358;-56
2024/01/06 16:26:37;;;;;;;12.00;10.60;;;22.40;53.00;;;;;;222010;1263;24183;-54
2024/01/06 16:31:46;;;;;;;12.90;11.40;;;22.40;53.00;;;;;;221660;1268;22630;-55
2024/01/06 16:36:50;;;;;;;12.30;10.80;;;22.40;52.80;;;;;;221656;1267;25454;-55
2024/01/06 16:41:57;;;;;;;15.10;11.20;;;22.40;52.30;;;;;;222566;1268;25343;-54
2024/01/06 16:47:01;;;;;;;15.00;11.30;;;22.70;51.80;;;;;;221709;1261;24206;-54
2024/01/06 16:52:06;;;;;;;12.60;10.90;;;23.00;51.20;;;;;;221767;1266;22700;-53
2024/01/06 16:57:11;;;;;;;11.00;9.90;;;23.00;51.10;;;;;;221721;1267;22558;-54
2024/01/06 17:02:15;;;;;;;13.30;10.90;;;23.30;50.60;;;;;;221677;1269;24318;-55
2024/01/06 17:07:20;;;;;;;14.20;10.30;;;23.40;50.70;;;;;;221877;1263;22524;-53
2024/01/06 17:12:30;;;;;;;13.70;11.00;;;23.40;51.00;;;;;;221736;1270;22632;-55
2024/01/06 17:17:38;;;;;;;13.30;10.70;;;23.30;50.50;;;;;;221996;1260;24378;-57
2024/01/06 17:22:44;;;;;;;12.30;10.90;;;23.20;51.00;;;;;;221730;1263;22665;-56
2024/01/06 17:27:48;;;;;;;12.50;10.30;;;23.10;51.10;;;;;;221845;1263;22667;-57
2024/01/06 17:32:53;;;;;;;13.50;10.60;;;23.00;51.20;;;;;;222091;1263;23920;-58
2024/01/06 17:37:58;;;;;;;11.60;10.20;;;23.00;50.90;;;;;;222023;1257;22521;-56
2024/01/06 17:43:03;;;;;;;14.40;10.40;;;22.90;51.30;;;;;;221850;1268;225085;-55
2024/01/06 17:48:08;;;;;;;12.50;10.70;;;22.80;51.70;;;;;;221843;1250;22527;-55
2024/01/06 17:53:12;;;;;;;11.50;10.30;;;22.70;51.70;;;;;;221940;1259;24207;-52
2024/01/06 17:58:16;;;;;;;11.50;10.20;;;22.70;51.40;;;;;;221738;1266;22678;-55
2024/01/06 18:03:20;;;;;;;12.30;9.40;;;22.70;51.50;;;;;;221773;1267;25586;-56
2024/01/06 18:08:25;;;;;;;16.90;10.40;;;22.60;51.30;;;;;;221580;1263;22522;-57
2024/01/06 18:13:29;;;;;;;12.60;10.40;;;22.60;51.50;;;;;;221580;1263;22819;-56
2024/01/06 18:18:34;;;;;;;12.30;9.60;;;22.50;51.00;;;;;;222820;1264;23020;-53
2024/01/06 18:23:38;;;;;;;11.90;9.60;;;22.60;51.00;;;;;;222218;1256;23524;-55
2024/01/06 18:28:43;;;;;;;10.40;9.30;;;22.70;50.80;;;;;;221712;1267;22552;-56
2024/01/06 18:33:48;;;;;;;11.70;9.90;;;22.80;50.80;;;;;;221852;1247;26657;-55
2024/01/06 18:38:52;;;;;;;12.80;9.30;;;22.80;50.40;;;;;;222301;1262;24336;-54
2024/01/06 18:43:57;;;;;;;11.20;8.60;;;22.80;50.20;;;;;;222011;1266;24299;-57
2024/01/06 18:49:02;;;;;;;12.00;9.50;;;22.90;50.00;;;;;;221945;1266;22528;-55
2024/01/06 18:54:09;;;;;;;11.20;9.30;;;22.80;50.10;;;;;;221964;1259;22538;-56
2024/01/06 18:59:21;;;;;;;11.60;9.10;;;22.70;50.40;;;;;;221833;1263;24200;-53
2024/01/06 19:04:27;;;;;;;10.00;8.80;;;22.60;49.90;;;;;;222324;1262;22520;-56
2024/01/06 19:09:34;;;;;;;13.50;9.00;;;22.60;50.20;;;;;;222108;1265;22517;-54
2024/01/06 19:14:39;;;;;;;17.40;9.60;;;22.60;48.60;;;;;;222504;1267;24197;-57
2024/01/06 19:19:43;;;;;;;16.10;9.00;;;22.50;52.40;;;;;;222161;1255;25484;-57
2024/01/06 19:24:47;;;;;;;15.00;9.00;;;22.60;50.40;;;;;;222386;1262;24202;-56
2024/01/06 19:29:52;;;;;;;13.90;8.80;;;22.50;50.30;;;;;;222321;1266;22567;-52
2024/01/06 19:34:58;;;;;;;11.80;8.70;;;22.40;50.60;;;;;;222379;1266;24233;-56
2024/01/06 19:40:03;;;;;;;18.60;9.10;;;22.50;50.20;;;;;;222249;1263;25315;-54
2024/01/06 19:45:08;;;;;;;11.80;8.20;;;22.50;52.30;;;;;;222191;1266;22524;-56
2024/01/06 19:50:13;;;;;;;19.10;8.50;;;22.50;51.40;;;;;;222330;1268;25336;-54
2024/01/06 19:55:17;;;;;;;15.70;9.00;;;22.30;51.80;;;;;;222139;1264;25491;-56
2024/01/06 20:00:24;;;;;;;13.00;7.70;;;22.20;52.40;;;;;;222015;1262;24321;-58
2024/01/06 20:05:28;;;;;;;14.50;7.90;;;22.40;52.40;;;;;;222128;1262;22532;-58
2024/01/06 20:10:32;;;;;;;11.50;8.00;;;22.70;51.80;;;;;;221863;1267;24186;-59
2024/01/06 20:15:37;;;;;;;10.90;7.60;;;22.80;51.60;;;;;;222310;1268;22510;-56
2024/01/06 20:20:41;;;;;;;8.80;7.20;;;23.00;51.20;;;;;;222105;1269;25365;-56
2024/01/06 20:25:47;;;;;;;12.10;7.80;;;23.00;51.70;;;;;;222123;1268;22518;-56
2024/01/06 20:30:54;;;;;;;12.50;7.70;;;22.90;51.70;;;;;;222198;1266;25480;-53
2024/01/06 20:36:04;;;;;;;14.30;7.40;;;23.00;51.70;;;;;;222100;1268;22571;-54
2024/01/06 20:41:09;;;;;;;10.60;7.90;;;22.90;52.10;;;;;;222380;1254;23012;-55
2024/01/06 20:46:18;;;;;;;8.50;7.60;;;22.90;52.70;;;;;;222097;1263;24336;-56
2024/01/06 20:51:23;;;;;;;11.10;7.60;;;22.90;52.20;;;;;;222035;1267;25224;-54
2024/01/06 20:56:27;;;;;;;12.00;7.90;;;23.00;51.90;;;;;;222150;1264;22591;-55
2024/01/06 21:01:32;;;;;;;13.40;7.60;;;23.00;51.70;;;;;;221989;1266;22533;-56
2024/01/06 21:06:36;;;;;;;9.80;7.10;;;22.90;51.80;;;;;;222133;1262;24347;-55
2024/01/06 21:11:42;;;;;;;12.30;8.30;;;22.80;51.90;;;;;;222178;1257;24207;-61
2024/01/06 21:16:54;;;;;;;15.50;8.00;;;22.80;51.80;;;;;;222041;1268;25538;-57
2024/01/06 21:21:59;;;;;;;14.20;6.90;;;22.60;51.90;;;;;;222043;1256;24302;-57
2024/01/06 21:27:03;;;;;;;15.70;7.40;;;22.60;51.90;;;;;;221987;1268;26513;-56
2024/01/06 21:32:07;;;;;;;13.70;7.10;;;22.60;51.30;;;;;;222026;1268;22534;-53
2024/01/06 21:37:11;;;;;;;10.00;7.20;;;22.60;51.80;;;;;;222290;1268;26607;-52
2024/01/06 21:42:16;;;;;;;12.80;8.00;;;22.90;51.40;;;;;;222428;1268;24207;-53
2024/01/06 21:47:26;;;;;;;18.90;7.70;;;22.90;51.80;;;;;;221857;1266;24200;-50
2024/01/06 21:52:30;;;;;;;18.20;8.00;;;23.00;51.10;;;;;;221954;1268;23131;-51
2024/01/06 21:57:34;;;;;;;20.40;10.50;;;23.00;51.00;;;;;;221870;1257;22526;-49
2024/01/06 22:02:39;;;;;;;20.20;9.20;;;23.10;52.90;;;;;;221898;1267;22518;-52
2024/01/06 22:07:43;;;;;;;20.60;9.30;;;22.90;54.80;;;;;;221981;1269;25496;-51
2024/01/06 22:12:48;;;;;;;20.60;9.20;;;22.80;55.50;;;;;;222041;1264;24370;-51
2024/01/06 22:17:55;;;;;;;19.90;10.40;;;22.70;55.10;;;;;;221816;1266;24285;-51
2024/01/06 22:22:59;;;;;;;24.30;10.50;;;22.80;54.80;;;;;;222125;1269;22707;-48
2024/01/06 22:28:06;;;;;;;18.70;9.30;;;22.70;54.60;;;;;;222020;1267;24196;-50
2024/01/06 22:33:16;;;;;;;19.10;8.80;;;22.60;54.80;;;;;;221707;1264;22647;-52
2024/01/06 22:38:23;;;;;;;15.10;8.10;;;22.60;55.00;;;;;;221632;1264;22556;-49
2024/01/06 22:43:33;;;;;;;16.30;8.40;;;22.70;54.50;;;;;;222134;1268;25213;-52
2024/01/06 22:48:38;;;;;;;16.00;8.60;;;22.50;55.10;;;;;;221846;1270;25480;-53
2024/01/06 22:53:45;;;;;;;15.40;7.60;;;22.60;55.00;;;;;;221956;1264;25214;-50
2024/01/06 22:58:49;;;;;;;12.50;7.70;;;22.80;54.50;;;;;;221773;1267;24375;-52
2024/01/06 23:03:57;;;;;;;13.00;7.20;;;22.90;54.10;;;;;;222147;1267;23139;-50
2024/01/06 23:09:04;;;;;;;11.10;7.20;;;22.90;53.60;;;;;;221913;1257;25492;-49
2024/01/06 23:14:10;;;;;;;13.90;7.40;;;23.10;53.20;;;;;;222054;1264;24232;-52
2024/01/06 23:19:14;;;;;;;9.40;6.70;;;23.20;53.00;;;;;;221968;1267;22635;-49
2024/01/06 23:24:18;;;;;;;13.20;7.20;;;23.30;52.70;;;;;;222115;1264;23666;-49
2024/01/06 23:29:23;;;;;;;10.50;6.60;;;23.20;52.60;;;;;;222017;1264;22644;-55
2024/01/06 23:34:31;;;;;;;13.80;7.50;;;23.10;52.90;;;;;;222225;1264;24227;-47
2024/01/06 23:39:45;;;;;;;9.80;6.70;;;23.00;53.20;;;;;;222347;1264;24222;-53
2024/01/06 23:44:54;;;;;;;10.70;6.50;;;22.80;53.90;;;;;;222009;1268;22835;-50
2024/01/06 23:49:58;;;;;;;11.10;7.30;;;22.90;54.00;;;;;;221981;1269;22520;-48
2024/01/06 23:55:03;;;;;;;11.40;6.60;;;22.80;53.30;;;;;;221690;1254;25478;-49
